createdAt,value
2022-09-11T00:04:52.162Z,100.00
2022-09-11T00:09:57.807Z,100.00
2022-09-11T00:15:01.772Z,100.00
2022-09-11T00:20:06.342Z,100.00
2022-09-11T00:25:11.787Z,100.00
2022-09-11T00:30:15.945Z,100.00
2022-09-11T00:35:19.866Z,100.00
2022-09-11T00:40:25.732Z,100.00
2022-09-11T00:45:29.960Z,100.00
2022-09-11T00:50:34.358Z,100.00
2022-09-11T00:55:44.819Z,100.00
2022-09-11T01:00:49.239Z,100.00
2022-09-11T01:05:55.418Z,100.00
2022-09-11T01:11:13.962Z,100.00
2022-09-11T01:16:24.612Z,100.00
2022-09-11T01:22:01.120Z,100.00
2022-09-11T01:27:42.775Z,100.00
2022-09-11T01:33:13.988Z,100.00
2022-09-11T01:38:23.770Z,100.00
2022-09-11T01:43:31.870Z,100.00
2022-09-11T01:48:41.348Z,100.00
2022-09-11T01:53:50.398Z,100.00
2022-09-11T01:59:00.641Z,100.00
2022-09-11T02:04:10.739Z,100.00
2022-09-11T02:09:18.046Z,100.00
2022-09-11T02:14:29.605Z,100.00
2022-09-11T02:19:33.803Z,100.00
2022-09-11T02:24:37.803Z,100.00
2022-09-11T02:29:43.819Z,100.00
2022-09-11T02:34:48.891Z,100.00
2022-09-11T02:40:15.092Z,100.00
2022-09-11T02:45:34.462Z,100.00
2022-09-11T02:50:47.117Z,100.00
2022-09-11T02:56:00.753Z,100.00
2022-09-11T03:01:10.054Z,100.00
2022-09-11T03:06:19.013Z,100.00
2022-09-11T03:11:23.420Z,100.00
2022-09-11T03:16:29.107Z,100.00
2022-09-11T03:21:33.454Z,100.00
2022-09-11T03:26:37.588Z,100.00
2022-09-11T03:31:43.228Z,100.00
2022-09-11T03:36:49.289Z,100.00
2022-09-11T03:41:54.354Z,100.00
2022-09-11T03:47:01.484Z,100.00
2022-09-11T03:52:06.164Z,100.00
2022-09-11T03:57:10.867Z,100.00
2022-09-11T04:02:17.175Z,100.00
2022-09-11T04:07:22.577Z,100.00
2022-09-11T04:12:27.597Z,100.00
2022-09-11T04:17:35.123Z,100.00
2022-09-11T04:22:39.953Z,100.00
2022-09-11T04:27:44.034Z,100.00
2022-09-11T04:32:53.966Z,100.00
2022-09-11T04:37:59.006Z,100.00
2022-09-11T04:43:04.224Z,100.00
2022-09-11T04:48:10.036Z,100.00
2022-09-11T04:53:14.135Z,100.00
2022-09-11T04:58:19.282Z,100.00
2022-09-11T05:03:24.735Z,100.00
2022-09-11T05:08:33.626Z,100.00
2022-09-11T05:13:39.964Z,100.00
2022-09-11T05:18:50.502Z,100.00
2022-09-11T05:23:55.866Z,100.00
2022-09-11T05:29:02.725Z,100.00
2022-09-11T05:34:10.392Z,100.00
2022-09-11T05:39:14.783Z,100.00
2022-09-11T05:44:19.609Z,100.00
2022-09-11T05:49:25.749Z,100.00
2022-09-11T05:54:29.709Z,100.00
2022-09-11T05:59:36.863Z,100.00
2022-09-11T06:04:42.529Z,100.00
2022-09-11T06:09:46.388Z,100.00
2022-09-11T06:14:49.970Z,100.00
2022-09-11T06:19:55.782Z,100.00
2022-09-11T06:24:59.978Z,100.00
2022-09-11T06:30:04.557Z,100.00
2022-09-11T06:35:13.919Z,100.00
2022-09-11T06:40:18.561Z,100.00
2022-09-11T06:45:22.687Z,100.00
2022-09-11T06:50:27.957Z,100.00
2022-09-11T06:55:41.596Z,100.00
2022-09-11T07:00:52.301Z,100.00
2022-09-11T07:05:57.759Z,100.00
2022-09-11T07:11:04.897Z,100.00
2022-09-11T07:16:12.614Z,100.00
2022-09-11T07:21:22.804Z,100.00
2022-09-11T07:26:30.953Z,100.00
2022-09-11T07:31:42.871Z,100.00
2022-09-11T07:36:52.086Z,100.00
2022-09-11T07:41:57.813Z,100.00
2022-09-11T07:47:07.286Z,100.00
2022-09-11T07:52:20.686Z,100.00
2022-09-11T07:57:32.566Z,100.00
2022-09-11T08:02:40.109Z,100.00
2022-09-11T08:07:45.991Z,100.00
2022-09-11T08:12:55.706Z,100.00
2022-09-11T08:18:02.885Z,100.00
2022-09-11T08:23:08.982Z,100.00
2022-09-11T08:28:14.250Z,100.00
2022-09-11T08:33:19.751Z,100.00
2022-09-11T08:38:25.801Z,100.00
2022-09-11T08:43:35.823Z,100.00
2022-09-11T08:48:51.185Z,100.00
2022-09-11T08:54:00.340Z,100.00
2022-09-11T08:59:25.274Z,100.00
2022-09-11T09:04:51.343Z,100.00
2022-09-11T09:10:07.878Z,100.00
2022-09-11T09:15:39.601Z,100.00
2022-09-11T09:20:48.030Z,100.00
2022-09-11T09:25:57.324Z,100.00
2022-09-11T09:31:07.872Z,100.00
2022-09-11T09:36:21.671Z,100.00
2022-09-11T09:42:10.090Z,100.00
2022-09-11T09:47:15.936Z,100.00
2022-09-11T09:52:23.025Z,100.00
2022-09-11T09:57:32.827Z,100.00
2022-09-11T10:02:42.183Z,100.00
2022-09-11T10:07:54.703Z,96.90
2022-09-11T10:13:18.659Z,100.00
2022-09-11T10:18:36.241Z,100.00
2022-09-11T10:23:46.613Z,100.00
2022-09-11T10:28:55.530Z,92.21
2022-09-11T10:34:02.254Z,94.82
2022-09-11T10:39:08.957Z,98.23
2022-09-11T10:44:17.357Z,100.00
2022-09-11T10:49:24.260Z,100.00
2022-09-11T10:54:41.808Z,100.00
2022-09-11T10:59:59.396Z,100.00
2022-09-11T11:05:06.103Z,100.00
2022-09-11T11:10:26.882Z,100.00
2022-09-11T11:15:46.292Z,98.19
2022-09-11T11:20:59.530Z,96.52
2022-09-11T11:26:24.147Z,94.63
2022-09-11T11:31:46.033Z,95.54
2022-09-11T11:37:17.381Z,94.26
2022-09-11T11:42:27.405Z,91.81
2022-09-11T11:47:38.991Z,85.90
2022-09-11T11:52:54.373Z,80.27
2022-09-11T11:58:06.367Z,78.54
2022-09-11T12:03:19.834Z,79.43
2022-09-11T12:08:24.430Z,80.02
2022-09-11T12:13:35.525Z,78.29
2022-09-11T12:18:44.172Z,76.43
2022-09-11T12:24:14.382Z,74.24
2022-09-11T12:29:58.333Z,73.66
2022-09-11T12:35:19.442Z,74.08
2022-09-11T12:40:33.544Z,74.93
2022-09-11T12:45:38.862Z,73.41
2022-09-11T12:50:51.124Z,72.46
2022-09-11T12:56:03.139Z,72.71
2022-09-11T13:01:22.926Z,72.75
2022-09-11T13:06:41.455Z,73.78
2022-09-11T13:11:50.342Z,72.09
2022-09-11T13:17:28.170Z,71.06
2022-09-11T13:22:36.162Z,70.77
2022-09-11T13:27:48.094Z,72.32
2022-09-11T13:33:02.417Z,70.19
2022-09-11T13:38:12.975Z,71.59
2022-09-11T13:43:20.289Z,71.23
2022-09-11T13:48:25.044Z,70.52
2022-09-11T13:53:33.860Z,74.61
2022-09-11T13:58:39.558Z,73.73
2022-09-11T14:03:46.980Z,75.02
2022-09-11T14:08:58.137Z,71.61
2022-09-11T14:14:11.562Z,69.77
2022-09-11T14:19:22.440Z,69.81
2022-09-11T14:24:40.947Z,67.37
2022-09-11T14:29:53.673Z,66.73
2022-09-11T14:34:57.192Z,68.00
2022-09-11T14:40:06.228Z,69.20
2022-09-11T14:45:12.018Z,64.95
2022-09-11T14:50:15.848Z,63.51
2022-09-11T14:55:21.623Z,62.48
2022-09-11T15:00:25.210Z,62.21
2022-09-11T15:05:29.127Z,61.45
2022-09-11T15:10:38.008Z,61.05
2022-09-11T15:15:43.372Z,82.78
2022-09-11T15:20:47.933Z,91.25
2022-09-11T15:26:01.381Z,94.18
2022-09-11T15:31:05.683Z,100.00
2022-09-11T15:36:10.114Z,100.00
2022-09-11T15:41:15.872Z,97.59
2022-09-11T15:46:23.190Z,99.02
2022-09-11T15:51:27.702Z,99.67
2022-09-11T15:56:35.759Z,100.00
2022-09-11T16:01:40.185Z,99.27
2022-09-11T16:06:46.106Z,98.51
2022-09-11T16:11:54.980Z,98.61
2022-09-11T16:16:59.282Z,95.93
2022-09-11T16:22:05.431Z,97.21
2022-09-11T16:27:12.281Z,95.57
2022-09-11T16:32:28.459Z,94.83
2022-09-11T16:37:34.527Z,95.91
2022-09-11T16:42:39.456Z,95.39
2022-09-11T16:47:44.496Z,97.20
2022-09-11T16:52:51.089Z,100.00
2022-09-11T16:58:00.099Z,100.00
2022-09-11T17:03:09.295Z,100.00
2022-09-11T17:08:13.920Z,100.00
2022-09-11T17:13:23.652Z,100.00
2022-09-11T17:18:28.251Z,100.00
2022-09-11T17:23:32.585Z,100.00
2022-09-11T17:28:42.075Z,100.00
2022-09-11T17:33:46.411Z,100.00
2022-09-11T17:38:55.250Z,100.00
2022-09-11T17:44:00.464Z,100.00
2022-09-11T17:49:07.569Z,100.00
2022-09-11T17:54:11.233Z,100.00
2022-09-11T17:59:17.308Z,100.00
2022-09-11T18:04:21.922Z,100.00
2022-09-11T18:09:28.091Z,100.00
2022-09-11T18:14:34.676Z,100.00
2022-09-11T18:19:41.379Z,100.00
2022-09-11T18:24:49.753Z,100.00
2022-09-11T18:29:55.339Z,100.00
2022-09-11T18:35:00.231Z,100.00
2022-09-11T18:40:05.217Z,100.00
2022-09-11T18:45:19.047Z,100.00
2022-09-11T18:50:24.106Z,100.00
2022-09-11T18:55:29.003Z,100.00
2022-09-11T19:00:34.902Z,100.00
2022-09-11T19:05:45.771Z,100.00
2022-09-11T19:10:52.659Z,100.00
2022-09-11T19:16:16.650Z,100.00
2022-09-11T19:21:26.764Z,100.00
2022-09-11T19:26:31.986Z,100.00
2022-09-11T19:31:39.423Z,100.00
2022-09-11T19:36:43.446Z,100.00
2022-09-11T19:41:50.294Z,100.00
2022-09-11T19:46:56.462Z,100.00
2022-09-11T19:52:02.254Z,100.00
2022-09-11T19:57:06.948Z,100.00
2022-09-11T20:02:14.742Z,100.00
2022-09-11T20:07:18.705Z,100.00
2022-09-11T20:12:22.587Z,100.00
2022-09-11T20:17:29.564Z,100.00
2022-09-11T20:22:33.742Z,100.00
2022-09-11T20:27:38.945Z,100.00
2022-09-11T20:32:47.809Z,100.00
2022-09-11T20:37:53.093Z,100.00
2022-09-11T20:43:00.488Z,100.00
2022-09-11T20:48:05.953Z,100.00
2022-09-11T20:53:10.374Z,100.00
2022-09-11T20:58:14.598Z,100.00
2022-09-11T21:03:21.010Z,100.00
2022-09-11T21:08:25.724Z,100.00
2022-09-11T21:13:30.447Z,100.00
2022-09-11T21:18:36.498Z,100.00
2022-09-11T21:23:40.626Z,100.00
2022-09-11T21:28:45.189Z,100.00
2022-09-11T21:33:50.671Z,100.00
2022-09-11T21:38:54.513Z,100.00
2022-09-11T21:43:58.365Z,100.00
2022-09-11T21:49:03.957Z,100.00
2022-09-11T21:54:07.740Z,100.00
2022-09-11T21:59:11.317Z,100.00
2022-09-11T22:04:16.444Z,100.00
2022-09-11T22:09:20.886Z,100.00
2022-09-11T22:14:25.247Z,100.00
2022-09-11T22:19:30.449Z,100.00
2022-09-11T22:24:33.986Z,100.00
2022-09-11T22:29:38.194Z,100.00
2022-09-11T22:34:43.325Z,100.00
2022-09-11T22:39:47.239Z,100.00
2022-09-11T22:44:51.171Z,100.00
2022-09-11T22:49:56.111Z,100.00
2022-09-11T22:55:00.126Z,100.00
2022-09-11T23:00:09.153Z,100.00
2022-09-11T23:05:31.555Z,100.00
2022-09-11T23:10:35.443Z,100.00
2022-09-11T23:15:39.138Z,100.00
2022-09-11T23:20:44.170Z,100.00
2022-09-11T23:25:47.810Z,100.00
2022-09-11T23:30:51.281Z,100.00
2022-09-11T23:35:56.225Z,100.00
2022-09-11T23:40:59.670Z,100.00
2022-09-11T23:46:03.297Z,100.00
2022-09-11T23:51:10.543Z,100.00
2022-09-11T23:56:15.392Z,100.00
